Time;durP1;ratioP1;P1;durP2;ratioP2;P2;SDS_P1;SDS_P2;PMS_P1;PMS_P2;Temp;Humidity;BMP_temperature;BMP_pressure;BME280_temperature;BME280_humidity;BME280_pressure;Samples;Min_cycle;Max_cycle;Signal;HPM_P1;HPM_P2
2022/02/17 00:04:06;;;;;;;29.58;17.88;;;;;;;;;;10249940;28;20532;-65
2022/02/17 00:09:06;;;;;;;26.10;18.50;;;;;;;;;;10243419;28;20418;-65
2022/02/17 00:14:06;;;;;;;26.95;18.50;;;;;;;;;;10250775;28;20080;-64
2022/02/17 00:19:04;;;;;;;24.17;16.20;;;;;;;;;;10246986;28;20072;-65
2022/02/17 00:24:02;;;;;;;23.67;16.25;;;;;;;;;;10249859;28;20088;-64
2022/02/17 00:29:00;;;;;;;32.28;19.33;;;;;;;;;;10249376;28;20071;-65
2022/02/17 00:34:00;;;;;;;29.48;19.75;;;;;;;;;;10249370;28;20473;-64
2022/02/17 00:39:00;;;;;;;30.20;19.27;;;;;;;;;;10246454;28;20148;-65
2022/02/17 00:43:59;;;;;;;28.73;20.92;;;;;;;;;;10253883;28;20071;-64
2022/02/17 00:48:57;;;;;;;27.75;19.80;;;;;;;;;;10239915;28;20080;-64
2022/02/17 00:53:57;;;;;;;28.63;20.27;;;;;;;;;;10242693;28;20172;-65
2022/02/17 00:58:58;;;;;;;36.30;21.13;;;;;;;;;;10240600;28;20072;-65
2022/02/17 01:03:59;;;;;;;25.20;21.67;;;;;;;;;;10244111;28;20042;-64
2022/02/17 01:08:59;;;;;;;26.50;20.42;;;;;;;;;;10249134;28;20045;-65
2022/02/17 01:13:59;;;;;;;33.13;19.02;;;;;;;;;;10238958;28;20073;-64
2022/02/17 01:18:59;;;;;;;29.58;23.15;;;;;;;;;;10245085;28;20044;-63
2022/02/17 01:23:59;;;;;;;30.45;22.30;;;;;;;;;;10244883;28;20428;-64
2022/02/17 01:28:58;;;;;;;28.95;21.35;;;;;;;;;;10238932;28;20068;-65
2022/02/17 01:34:01;;;;;;;36.70;20.13;;;;;;;;;;10237323;28;20081;-65
2022/02/17 01:39:01;;;;;;;32.63;20.23;;;;;;;;;;10255387;28;20038;-64
2022/02/17 01:44:02;;;;;;;30.00;22.00;;;;;;;;;;10238179;28;20321;-64
2022/02/17 01:49:01;;;;;;;30.40;20.58;;;;;;;;;;10239397;28;20088;-64
2022/02/17 01:54:01;;;;;;;26.55;20.20;;;;;;;;;;10238152;28;20045;-64
2022/02/17 01:59:00;;;;;;;27.80;21.73;;;;;;;;;;10245490;28;20083;-64
2022/02/17 02:04:00;;;;;;;31.15;21.33;;;;;;;;;;10242634;28;20083;-64
2022/02/17 02:08:58;;;;;;;30.38;20.33;;;;;;;;;;10244617;28;20049;-63
2022/02/17 02:14:02;;;;;;;29.70;20.65;;;;;;;;;;10244063;28;20475;-64
2022/02/17 02:19:04;;;;;;;25.98;20.05;;;;;;;;;;10256622;28;20093;-64
2022/02/17 02:24:05;;;;;;;40.92;27.80;;;;;;;;;;10256381;28;20497;-64
2022/02/17 02:29:04;;;;;;;36.80;22.85;;;;;;;;;;10255463;28;20041;-64
2022/02/17 02:34:02;;;;;;;33.92;24.23;;;;;;;;;;10245663;28;20073;-64
2022/02/17 02:39:00;;;;;;;39.00;27.20;;;;;;;;;;10247941;28;20482;-65
2022/02/17 02:44:20;;;;;;;39.75;26.65;;;;;;;;;;10247831;28;20423;-64
2022/02/17 02:49:24;;;;;;;;;;;;;;;;;;10244497;28;20532;-63
2022/02/17 02:54:23;;;;;;;36.92;29.75;;;;;;;;;;10244062;28;19959;-64
2022/02/17 02:59:22;;;;;;;41.20;30.35;;;;;;;;;;10244400;28;20052;-64
2022/02/17 03:04:23;;;;;;;41.85;30.75;;;;;;;;;;10243790;28;20068;-63
2022/02/17 03:09:21;;;;;;;40.67;30.77;;;;;;;;;;10250120;28;20056;-63
2022/02/17 03:14:20;;;;;;;51.60;38.72;;;;;;;;;;10245311;28;20498;-63
2022/02/17 03:19:20;;;;;;;40.85;30.73;;;;;;;;;;10244525;28;20041;-63
2022/02/17 03:24:18;;;;;;;41.55;31.60;;;;;;;;;;10249977;28;20075;-63
2022/02/17 03:29:18;;;;;;;44.63;30.10;;;;;;;;;;10244260;28;20475;-63
2022/02/17 03:34:17;;;;;;;41.80;29.80;;;;;;;;;;10244402;28;20081;-63
2022/02/17 03:39:17;;;;;;;42.47;30.02;;;;;;;;;;10241835;28;20498;-64
2022/02/17 03:44:36;;;;;;;46.95;31.25;;;;;;;;;;10243262;28;20459;-64
2022/02/17 03:49:47;;;;;;;39.30;30.38;;;;;;;;;;10244591;28;20438;-64
2022/02/17 03:54:46;;;;;;;43.05;29.27;;;;;;;;;;10240445;28;20077;-64
2022/02/17 03:59:46;;;;;;;40.97;32.35;;;;;;;;;;10256186;28;20289;-64
2022/02/17 04:04:45;;;;;;;37.35;28.83;;;;;;;;;;10239490;28;20037;-63
2022/02/17 04:09:44;;;;;;;33.85;25.65;;;;;;;;;;10242097;28;20076;-64
2022/02/17 04:14:47;;;;;;;36.63;26.70;;;;;;;;;;10245449;28;20077;-64
2022/02/17 04:19:45;;;;;;;37.83;27.88;;;;;;;;;;10244331;28;20052;-64
2022/02/17 04:24:52;;;;;;;33.22;25.65;;;;;;;;;;10251997;28;20083;-63
2022/02/17 04:29:56;;;;;;;32.35;25.23;;;;;;;;;;10241161;28;20053;-65
2022/02/17 04:34:55;;;;;;;36.03;25.17;;;;;;;;;;10245528;28;20076;-64
2022/02/17 04:39:53;;;;;;;34.83;24.00;;;;;;;;;;10245720;28;20475;-64
2022/02/17 04:44:52;;;;;;;31.10;23.00;;;;;;;;;;10248153;28;20462;-64
2022/02/17 04:49:54;;;;;;;35.40;27.92;;;;;;;;;;10248359;28;20052;-64
2022/02/17 04:54:53;;;;;;;31.73;24.13;;;;;;;;;;10249331;28;20072;-64
2022/02/17 04:59:51;;;;;;;30.55;22.55;;;;;;;;;;10242565;28;20076;-64
2022/02/17 05:04:51;;;;;;;36.58;22.88;;;;;;;;;;10248799;28;20049;-64
2022/02/17 05:09:53;;;;;;;31.33;21.98;;;;;;;;;;10252502;28;20479;-64
2022/02/17 05:15:09;;;;;;;32.17;23.30;;;;;;;;;;10248596;28;20095;-64
2022/02/17 05:20:08;;;;;;;32.50;25.45;;;;;;;;;;10241720;28;20041;-64
2022/02/17 05:25:18;;;;;;;31.17;24.20;;;;;;;;;;10237583;28;20089;-65
2022/02/17 05:30:20;;;;;;;33.30;24.17;;;;;;;;;;10239273;28;20069;-64
2022/02/17 05:35:18;;;;;;;37.45;24.75;;;;;;;;;;10240992;28;20073;-64
2022/02/17 05:40:36;;;;;;;32.30;24.17;;;;;;;;;;10256615;28;20490;-63
2022/02/17 05:45:36;;;;;;;39.97;29.67;;;;;;;;;;10252370;28;20080;-63
2022/02/17 05:50:35;;;;;;;40.85;31.60;;;;;;;;;;10250718;28;20080;-63
2022/02/17 05:55:33;;;;;;;31.63;23.40;;;;;;;;;;10249845;28;20076;-62
2022/02/17 06:00:33;;;;;;;32.97;24.65;;;;;;;;;;10253793;28;20227;-64
2022/02/17 06:05:31;;;;;;;37.38;27.35;;;;;;;;;;10246021;28;20065;-63
2022/02/17 06:10:31;;;;;;;35.20;28.33;;;;;;;;;;10251067;28;20060;-63
2022/02/17 06:15:29;;;;;;;52.65;39.35;;;;;;;;;;10252681;28;20072;-64
2022/02/17 06:20:29;;;;;;;66.10;43.30;;;;;;;;;;10247839;28;20088;-64
2022/02/17 06:25:28;;;;;;;48.42;35.53;;;;;;;;;;10254202;28;20596;-64
2022/02/17 06:30:26;;;;;;;48.47;37.13;;;;;;;;;;10255585;28;20065;-64
2022/02/17 06:35:29;;;;;;;61.75;43.00;;;;;;;;;;10251372;28;20045;-64
2022/02/17 06:40:31;;;;;;;89.68;62.67;;;;;;;;;;10241665;28;20061;-64
2022/02/17 06:45:31;;;;;;;62.65;42.63;;;;;;;;;;10244326;28;20080;-64
2022/02/17 06:50:34;;;;;;;62.13;42.03;;;;;;;;;;10243625;28;20084;-64
2022/02/17 06:55:36;;;;;;;63.00;44.03;;;;;;;;;;10236763;28;20100;-64
2022/02/17 07:00:35;;;;;;;58.75;40.83;;;;;;;;;;10239916;28;20494;-64
2022/02/17 07:05:36;;;;;;;49.13;36.35;;;;;;;;;;10242631;28;20065;-65
2022/02/17 07:15:53;;;;;;;65.07;45.20;;;;;;;;;;10247376;28;20068;-64
2022/02/17 07:20:55;;;;;;;53.72;40.00;;;;;;;;;;10248012;28;20033;-64
2022/02/17 07:25:55;;;;;;;49.05;36.50;;;;;;;;;;10248176;28;20065;-64
2022/02/17 07:30:53;;;;;;;56.80;42.10;;;;;;;;;;10251271;28;20069;-64
2022/02/17 07:35:52;;;;;;;53.53;40.15;;;;;;;;;;10251420;28;20057;-64
2022/02/17 07:41:12;;;;;;;50.80;36.15;;;;;;;;;;10248208;28;20135;-64
2022/02/17 07:46:12;;;;;;;49.22;38.20;;;;;;;;;;10249148;28;20072;-64
2022/02/17 07:51:10;;;;;;;52.13;37.15;;;;;;;;;;10247499;28;20528;-64
2022/02/17 07:56:09;;;;;;;59.13;37.63;;;;;;;;;;10247536;28;20069;-64
2022/02/17 08:01:14;;;;;;;105.93;71.40;;;;;;;;;;10244082;28;20562;-64
2022/02/17 08:06:13;;;;;;;51.40;41.88;;;;;;;;;;10241078;28;20493;-64
2022/02/17 08:11:26;;;;;;;48.17;36.63;;;;;;;;;;10241285;28;20067;-64
2022/02/17 08:16:27;;;;;;;44.67;35.65;;;;;;;;;;10243789;28;20512;-65
2022/02/17 08:21:25;;;;;;;42.30;32.78;;;;;;;;;;10240990;28;20084;-64
2022/02/17 08:26:23;;;;;;;44.42;34.60;;;;;;;;;;10242471;28;20069;-64
2022/02/17 08:31:22;;;;;;;45.97;33.55;;;;;;;;;;10241075;28;20522;-64
2022/02/17 08:36:22;;;;;;;42.53;33.35;;;;;;;;;;10242587;28;20076;-64
2022/02/17 08:41:20;;;;;;;44.22;34.28;;;;;;;;;;10243109;28;20510;-63
2022/02/17 08:46:20;;;;;;;47.50;36.08;;;;;;;;;;10243054;28;20089;-63
2022/02/17 08:51:21;;;;;;;43.42;33.47;;;;;;;;;;10243774;28;20107;-63
2022/02/17 08:56:21;;;;;;;43.65;32.92;;;;;;;;;;10241253;28;20081;-63
2022/02/17 09:01:23;;;;;;;43.50;35.50;;;;;;;;;;10244253;28;20467;-64
2022/02/17 09:06:21;;;;;;;47.22;33.60;;;;;;;;;;10242415;28;20037;-65
2022/02/17 09:11:19;;;;;;;40.28;32.70;;;;;;;;;;10249850;28;20068;-65
2022/02/17 09:16:19;;;;;;;40.30;33.30;;;;;;;;;;10253072;28;20069;-65
2022/02/17 09:21:17;;;;;;;41.78;33.05;;;;;;;;;;10250228;28;20068;-64
2022/02/17 09:26:16;;;;;;;44.05;32.70;;;;;;;;;;10252204;28;20065;-64
2022/02/17 09:31:18;;;;;;;41.03;32.65;;;;;;;;;;10248781;28;20061;-64
2022/02/17 09:36:18;;;;;;;41.85;33.50;;;;;;;;;;10251239;28;20565;-65
2022/02/17 09:41:18;;;;;;;38.05;30.13;;;;;;;;;;10249322;28;20584;-65
2022/02/17 09:46:20;;;;;;;39.55;31.13;;;;;;;;;;10249549;28;20076;-65
2022/02/17 09:51:20;;;;;;;48.00;35.92;;;;;;;;;;10251706;28;20072;-65
2022/02/17 09:56:18;;;;;;;54.08;39.00;;;;;;;;;;10255865;28;20064;-64
2022/02/17 10:01:18;;;;;;;41.83;30.42;;;;;;;;;;10249283;28;20077;-65
2022/02/17 10:06:17;;;;;;;52.30;37.75;;;;;;;;;;10257906;28;20052;-68
2022/02/17 10:11:28;;;;;;;40.45;31.10;;;;;;;;;;10251600;28;20065;-67
2022/02/17 10:16:26;;;;;;;36.45;26.55;;;;;;;;;;10256142;28;20084;-69
2022/02/17 10:21:33;;;;;;;43.80;34.70;;;;;;;;;;10248130;28;20076;-67
2022/02/17 10:26:32;;;;;;;38.25;29.77;;;;;;;;;;10251493;28;20073;-67
2022/02/17 10:31:31;;;;;;;42.40;29.77;;;;;;;;;;10244780;28;20069;-68
2022/02/17 10:36:35;;;;;;;34.45;28.70;;;;;;;;;;10244764;28;20112;-68
2022/02/17 10:41:48;;;;;;;42.50;31.48;;;;;;;;;;10245469;28;20069;-67
2022/02/17 10:46:46;;;;;;;37.80;28.73;;;;;;;;;;10247424;28;20054;-68
2022/02/17 10:51:45;;;;;;;32.03;27.20;;;;;;;;;;10247116;28;20529;-68
2022/02/17 10:56:43;;;;;;;29.35;24.15;;;;;;;;;;10247828;28;20081;-68
2022/02/17 11:01:45;;;;;;;32.10;25.08;;;;;;;;;;10250193;28;20085;-68
2022/02/17 11:06:45;;;;;;;42.65;32.00;;;;;;;;;;10247773;28;20088;-68
2022/02/17 11:11:49;;;;;;;33.17;26.25;;;;;;;;;;10247805;28;20069;-68
2022/02/17 11:16:49;;;;;;;29.25;23.65;;;;;;;;;;10247354;28;20069;-68
2022/02/17 11:21:48;;;;;;;31.65;24.67;;;;;;;;;;10251467;28;20069;-68
2022/02/17 11:26:46;;;;;;;35.63;24.23;;;;;;;;;;10247760;28;20065;-68
2022/02/17 11:32:02;;;;;;;33.58;24.08;;;;;;;;;;10246099;28;20060;-68
2022/02/17 11:37:00;;;;;;;;;;;;;;;;;;10249541;28;20065;-68
2022/02/17 11:42:00;;;;;;;35.67;24.23;;;;;;;;;;10245562;28;19963;-68
2022/02/17 11:47:05;;;;;;;28.10;23.25;;;;;;;;;;10247276;28;20072;-68
2022/02/17 11:52:09;;;;;;;33.45;23.55;;;;;;;;;;10244771;28;20039;-68
2022/02/17 11:57:31;;;;;;;31.10;23.83;;;;;;;;;;10240088;28;20073;-68
2022/02/17 12:02:42;;;;;;;40.05;29.73;;;;;;;;;;10239908;28;20506;-68
2022/02/17 12:07:41;;;;;;;34.40;27.13;;;;;;;;;;10241236;28;20076;-68
2022/02/17 12:12:43;;;;;;;27.90;23.55;;;;;;;;;;10241496;28;20064;-68
2022/02/17 12:17:43;;;;;;;27.85;22.90;;;;;;;;;;10241883;28;20505;-69
2022/02/17 12:22:49;;;;;;;29.17;22.70;;;;;;;;;;10242033;28;20447;-68
2022/02/17 12:27:48;;;;;;;28.17;21.67;;;;;;;;;;10243228;28;20479;-68
2022/02/17 12:32:48;;;;;;;32.45;24.10;;;;;;;;;;10243176;28;20060;-68
2022/02/17 12:38:00;;;;;;;25.95;21.98;;;;;;;;;;10241275;28;20507;-68
2022/02/17 12:42:58;;;;;;;27.80;21.60;;;;;;;;;;10242649;28;20443;-68
2022/02/17 12:47:58;;;;;;;28.77;21.73;;;;;;;;;;10247453;28;20551;-68
2022/02/17 12:52:56;;;;;;;32.83;22.58;;;;;;;;;;10245267;28;20500;-69
2022/02/17 12:57:55;;;;;;;31.75;21.02;;;;;;;;;;10248721;28;20603;-68
2022/02/17 13:02:53;;;;;;;25.70;19.38;;;;;;;;;;10245465;28;20072;-68
2022/02/17 13:07:55;;;;;;;28.08;18.52;;;;;;;;;;10244783;28;20363;-64
2022/02/17 13:12:56;;;;;;;26.90;20.30;;;;;;;;;;10239953;28;20057;-65
2022/02/17 13:17:54;;;;;;;24.85;19.88;;;;;;;;;;10239881;28;20064;-65
2022/02/17 13:22:56;;;;;;;25.50;20.00;;;;;;;;;;10244218;28;20080;-65
2022/02/17 13:27:55;;;;;;;25.85;18.50;;;;;;;;;;10239132;28;20064;-65
2022/02/17 13:32:54;;;;;;;25.55;16.60;;;;;;;;;;10241412;28;20498;-65
2022/02/17 13:37:57;;;;;;;18.63;15.00;;;;;;;;;;10241393;28;20447;-65
2022/02/17 13:42:55;;;;;;;22.88;15.90;;;;;;;;;;10242506;28;20452;-66
2022/02/17 13:47:54;;;;;;;24.45;16.98;;;;;;;;;;10242488;28;20084;-66
2022/02/17 13:53:03;;;;;;;23.98;17.48;;;;;;;;;;10241734;28;20069;-65
2022/02/17 13:58:03;;;;;;;14.48;11.60;;;;;;;;;;10248066;28;20042;-66
2022/02/17 14:03:20;;;;;;;16.55;9.43;;;;;;;;;;10247988;28;20069;-66
2022/02/17 14:08:20;;;;;;;15.48;10.27;;;;;;;;;;10252759;28;20075;-65
2022/02/17 14:13:19;;;;;;;29.60;24.55;;;;;;;;;;10246744;28;20072;-66
2022/02/17 14:18:17;;;;;;;20.50;14.75;;;;;;;;;;10245490;28;20077;-65
2022/02/17 14:23:16;;;;;;;14.60;10.85;;;;;;;;;;10246012;28;20072;-66
2022/02/17 14:28:15;;;;;;;17.88;12.18;;;;;;;;;;10244680;28;20454;-65
2022/02/17 14:33:14;;;;;;;15.27;13.68;;;;;;;;;;10246370;28;20069;-65
2022/02/17 14:38:12;;;;;;;16.23;11.10;;;;;;;;;;10245930;28;20076;-65
2022/02/17 14:43:15;;;;;;;14.30;10.65;;;;;;;;;;10248042;28;20133;-65
2022/02/17 14:48:17;;;;;;;212.18;116.68;;;;;;;;;;10249005;28;20065;-65
2022/02/17 14:53:21;;;;;;;183.30;90.65;;;;;;;;;;10247180;28;20517;-65
2022/02/17 14:58:22;;;;;;;147.07;70.72;;;;;;;;;;10258921;28;20045;-65
2022/02/17 15:03:22;;;;;;;36.35;28.13;;;;;;;;;;10249141;28;20079;-65
2022/02/17 15:08:23;;;;;;;33.47;26.50;;;;;;;;;;10251839;28;20118;-66
2022/02/17 15:13:27;;;;;;;27.10;19.55;;;;;;;;;;10243898;28;20076;-65
2022/02/17 15:18:32;;;;;;;29.13;20.92;;;;;;;;;;10244149;28;20061;-66
2022/02/17 15:23:31;;;;;;;37.97;22.77;;;;;;;;;;10244394;28;20081;-66
2022/02/17 15:28:29;;;;;;;29.42;22.17;;;;;;;;;;10244742;28;20073;-66
2022/02/17 15:33:29;;;;;;;41.33;26.73;;;;;;;;;;10245767;28;20971;-64
2022/02/17 15:38:47;;;;;;;43.70;26.90;;;;;;;;;;10245625;28;20072;-64
2022/02/17 15:43:47;;;;;;;48.38;30.58;;;;;;;;;;10246461;28;20105;-65
2022/02/17 15:48:47;;;;;;;60.25;35.83;;;;;;;;;;10246580;28;20072;-65
2022/02/17 15:53:45;;;;;;;51.80;36.00;;;;;;;;;;10246237;28;20064;-65
2022/02/17 15:58:48;;;;;;;48.45;34.40;;;;;;;;;;10245243;28;20057;-65
2022/02/17 16:03:50;;;;;;;44.97;35.13;;;;;;;;;;10245388;28;20067;-65
2022/02/17 16:08:51;;;;;;;36.15;27.55;;;;;;;;;;10249548;28;20098;-65
2022/02/17 16:13:49;;;;;;;70.05;52.92;;;;;;;;;;10249733;28;20061;-65
2022/02/17 16:18:47;;;;;;;56.47;41.50;;;;;;;;;;10245363;28;20040;-65
2022/02/17 16:23:47;;;;;;;38.78;31.50;;;;;;;;;;10247972;28;20095;-64
2022/02/17 16:28:46;;;;;;;48.63;37.75;;;;;;;;;;10242814;28;20041;-65
2022/02/17 16:33:44;;;;;;;49.38;37.22;;;;;;;;;;10247534;28;20073;-65
2022/02/17 16:38:43;;;;;;;66.65;47.05;;;;;;;;;;10243741;28;20091;-65
2022/02/17 16:43:46;;;;;;;55.90;37.88;;;;;;;;;;10239650;28;20069;-65
2022/02/17 16:48:46;;;;;;;83.22;59.47;;;;;;;;;;10240505;28;20081;-65
2022/02/17 16:53:46;;;;;;;74.85;47.70;;;;;;;;;;10239697;28;20069;-65
2022/02/17 16:58:46;;;;;;;82.53;52.45;;;;;;;;;;10240455;28;20453;-65
2022/02/17 17:03:44;;;;;;;100.88;67.20;;;;;;;;;;10240128;28;20073;-65
2022/02/17 17:08:42;;;;;;;46.92;34.35;;;;;;;;;;10240883;28;20467;-65
2022/02/17 17:13:41;;;;;;;29.33;25.05;;;;;;;;;;10241794;28;20068;-65
2022/02/17 17:18:41;;;;;;;68.03;49.83;;;;;;;;;;10241458;28;20069;-65
2022/02/17 17:23:40;;;;;;;69.60;62.20;;;;;;;;;;10241312;28;20072;-65
2022/02/17 17:28:39;;;;;;;75.80;59.70;;;;;;;;;;10242167;28;20462;-65
2022/02/17 17:33:37;;;;;;;82.97;64.47;;;;;;;;;;10249872;28;20506;-65
2022/02/17 17:38:40;;;;;;;70.40;50.97;;;;;;;;;;10252527;28;20458;-65
2022/02/17 17:43:39;;;;;;;86.57;60.33;;;;;;;;;;10253296;28;20076;-65
2022/02/17 17:48:39;;;;;;;63.88;44.95;;;;;;;;;;10259020;28;20075;-65
2022/02/17 17:53:38;;;;;;;63.70;46.92;;;;;;;;;;10247191;28;20071;-65
2022/02/17 17:58:36;;;;;;;56.03;41.65;;;;;;;;;;10250255;28;20060;-65
2022/02/17 18:03:35;;;;;;;54.30;44.53;;;;;;;;;;10246563;28;20508;-65
2022/02/17 18:08:34;;;;;;;61.45;44.90;;;;;;;;;;10245118;28;20076;-65
2022/02/17 18:13:33;;;;;;;75.45;52.42;;;;;;;;;;10248518;28;20068;-65
2022/02/17 18:18:33;;;;;;;53.83;39.88;;;;;;;;;;10246128;28;20510;-65
2022/02/17 18:23:31;;;;;;;55.25;39.97;;;;;;;;;;10247666;28;20061;-65
2022/02/17 18:28:30;;;;;;;140.82;89.22;;;;;;;;;;10245482;28;20490;-65
2022/02/17 18:33:29;;;;;;;94.53;58.58;;;;;;;;;;10250744;28;20085;-65
2022/02/17 18:38:28;;;;;;;39.83;31.00;;;;;;;;;;10255057;28;20087;-65
2022/02/17 18:43:26;;;;;;;41.50;36.58;;;;;;;;;;10251606;28;20446;-65
2022/02/17 18:48:25;;;;;;;32.35;22.92;;;;;;;;;;10250072;28;20069;-65
2022/02/17 18:53:24;;;;;;;32.70;26.13;;;;;;;;;;10252644;28;20087;-65
2022/02/17 18:58:24;;;;;;;34.42;24.88;;;;;;;;;;10250079;28;20487;-66
2022/02/17 19:03:23;;;;;;;25.17;16.25;;;;;;;;;;10251540;28;20068;-65
2022/02/17 19:08:32;;;;;;;23.92;15.45;;;;;;;;;;10244952;28;20511;-65
2022/02/17 19:13:30;;;;;;;38.42;21.40;;;;;;;;;;10254493;28;20458;-66
2022/02/17 19:18:29;;;;;;;17.08;11.93;;;;;;;;;;10249225;28;20494;-65
2022/02/17 19:23:30;;;;;;;18.65;13.07;;;;;;;;;;10244219;28;20081;-65
2022/02/17 19:28:29;;;;;;;22.27;14.05;;;;;;;;;;10247281;28;20477;-65
2022/02/17 19:33:27;;;;;;;22.02;13.80;;;;;;;;;;10249672;28;20069;-66
2022/02/17 19:38:26;;;;;;;20.63;15.02;;;;;;;;;;10239807;28;20061;-65
2022/02/17 19:43:25;;;;;;;19.90;14.13;;;;;;;;;;10250741;28;20089;-65
2022/02/17 19:48:24;;;;;;;17.70;14.02;;;;;;;;;;10252737;28;20077;-66
2022/02/17 19:53:22;;;;;;;19.88;14.50;;;;;;;;;;10242896;28;20482;-66
2022/02/17 19:58:20;;;;;;;20.42;14.35;;;;;;;;;;10251776;28;20529;-65
2022/02/17 20:03:20;;;;;;;15.30;12.52;;;;;;;;;;10252614;28;20072;-65
2022/02/17 20:08:19;;;;;;;18.55;14.23;;;;;;;;;;10246788;28;20065;-65
2022/02/17 20:13:17;;;;;;;24.63;13.98;;;;;;;;;;10252127;28;20080;-65
2022/02/17 20:18:15;;;;;;;29.92;15.52;;;;;;;;;;10252716;28;20529;-65
2022/02/17 20:23:15;;;;;;;19.17;15.60;;;;;;;;;;10244675;28;20077;-65
2022/02/17 20:28:15;;;;;;;23.60;16.65;;;;;;;;;;10248322;28;20477;-64
2022/02/17 20:33:14;;;;;;;25.38;20.08;;;;;;;;;;10250834;28;20072;-65
2022/02/17 20:38:12;;;;;;;24.05;15.45;;;;;;;;;;10257237;28;20071;-65
2022/02/17 20:43:13;;;;;;;20.05;13.77;;;;;;;;;;10249143;28;20072;-65
2022/02/17 20:53:27;;;;;;;15.30;11.77;;;;;;;;;;10245873;28;20144;-65
2022/02/17 20:58:27;;;;;;;14.20;10.70;;;;;;;;;;10248087;28;20073;-65
2022/02/17 21:03:25;;;;;;;13.20;10.27;;;;;;;;;;10252259;28;20069;-64
2022/02/17 21:08:24;;;;;;;23.55;15.07;;;;;;;;;;10250247;28;20069;-65
2022/02/17 21:13:22;;;;;;;18.60;11.65;;;;;;;;;;10247870;28;20069;-65
2022/02/17 21:18:22;;;;;;;18.00;11.45;;;;;;;;;;10242483;28;20065;-66
2022/02/17 21:23:21;;;;;;;20.00;15.65;;;;;;;;;;10242231;28;20085;-65
2022/02/17 21:28:19;;;;;;;19.55;12.65;;;;;;;;;;10248765;28;20076;-65
2022/02/17 21:33:19;;;;;;;18.98;12.48;;;;;;;;;;10247772;28;20060;-66
2022/02/17 21:38:19;;;;;;;14.32;11.13;;;;;;;;;;10245841;28;20065;-66
2022/02/17 21:43:19;;;;;;;16.90;13.55;;;;;;;;;;10244991;28;20582;-66
2022/02/17 21:48:18;;;;;;;28.75;15.05;;;;;;;;;;10248254;28;20488;-66
2022/02/17 21:53:29;;;;;;;20.25;13.60;;;;;;;;;;10247787;28;20068;-66
2022/02/17 21:58:28;;;;;;;22.23;16.88;;;;;;;;;;10248063;28;20077;-65
2022/02/17 22:03:26;;;;;;;20.60;15.27;;;;;;;;;;10242230;28;20121;-66
2022/02/17 22:08:27;;;;;;;27.00;19.70;;;;;;;;;;10240375;28;20072;-66
2022/02/17 22:13:27;;;;;;;22.25;16.92;;;;;;;;;;10250907;28;20517;-66
2022/02/17 22:18:26;;;;;;;21.50;16.15;;;;;;;;;;10247832;28;20069;-66
2022/02/17 22:23:24;;;;;;;19.35;14.15;;;;;;;;;;10244456;28;20478;-65
2022/02/17 22:28:23;;;;;;;21.25;15.38;;;;;;;;;;10245193;28;20065;-66
2022/02/17 22:33:23;;;;;;;24.00;16.90;;;;;;;;;;10244091;28;20076;-66
2022/02/17 22:38:21;;;;;;;23.88;16.98;;;;;;;;;;10245430;28;20065;-66
2022/02/17 22:43:19;;;;;;;25.48;20.05;;;;;;;;;;10245793;28;20073;-66
2022/02/17 22:48:18;;;;;;;23.90;16.65;;;;;;;;;;10245872;28;20072;-66
2022/02/17 22:53:17;;;;;;;25.83;18.50;;;;;;;;;;10247435;28;20474;-66
2022/02/17 22:58:16;;;;;;;26.75;19.35;;;;;;;;;;10248579;28;20498;-66
2022/02/17 23:03:14;;;;;;;24.17;18.27;;;;;;;;;;10246530;28;20079;-66
2022/02/17 23:13:30;;;;;;;23.45;17.42;;;;;;;;;;10247852;28;20080;-66
2022/02/17 23:18:39;;;;;;;23.83;16.77;;;;;;;;;;10249429;28;20041;-66
2022/02/17 23:23:44;;;;;;;22.20;17.08;;;;;;;;;;10248759;28;20487;-66
2022/02/17 23:28:47;;;;;;;21.55;17.42;;;;;;;;;;10257797;28;20057;-66
2022/02/17 23:33:45;;;;;;;24.80;18.10;;;;;;;;;;10249991;28;20080;-66
2022/02/17 23:38:46;;;;;;;19.73;16.90;;;;;;;;;;10243580;28;20079;-66
2022/02/17 23:43:49;;;;;;;24.70;16.52;;;;;;;;;;10242846;28;20125;-66
2022/02/17 23:48:47;;;;;;;23.30;17.38;;;;;;;;;;10244454;28;20083;-66
2022/02/17 23:53:45;;;;;;;23.45;16.85;;;;;;;;;;10244383;28;20072;-66
2022/02/17 23:58:44;;;;;;;24.90;18.25;;;;;;;;;;10242319;28;20507;-66
